Time;durP1;ratioP1;P1;durP2;ratioP2;P2;SDS_P1;SDS_P2;PMS_P1;PMS_P2;Temp;Humidity;BMP_temperature;BMP_pressure;BME280_temperature;BME280_humidity;BME280_pressure;Samples;Min_cycle;Max_cycle;Signal;HPM_P1;HPM_P2
2023/05/17 00:00:43;;;;;;;7.30;2.97;;;8.50;99.90;;;;;;5038030;28;20175;-89
2023/05/17 00:03:09;;;;;;;9.50;2.93;;;8.40;99.90;;;;;;5038232;28;20178;-88
2023/05/17 00:05:34;;;;;;;8.10;3.30;;;8.50;99.90;;;;;;5037902;28;20171;-88
2023/05/17 00:08:00;;;;;;;8.70;3.17;;;8.50;99.90;;;;;;5036921;28;20280;-89
2023/05/17 00:10:26;;;;;;;10.27;3.00;;;8.50;99.90;;;;;;5037395;28;20553;-90
2023/05/17 00:12:52;;;;;;;5.40;2.67;;;8.50;99.90;;;;;;5036478;28;20205;-90
2023/05/17 00:15:17;;;;;;;7.03;2.80;;;8.40;99.90;;;;;;5037789;28;20174;-88
2023/05/17 00:17:43;;;;;;;8.47;2.67;;;8.40;99.90;;;;;;5036553;28;20716;-88
2023/05/17 00:20:09;;;;;;;9.47;3.17;;;8.40;99.90;;;;;;5037697;28;20206;-87
2023/05/17 00:22:36;;;;;;;8.23;2.80;;;8.40;99.90;;;;;;5037585;28;20249;-89
2023/05/17 00:25:02;;;;;;;6.60;2.70;;;8.40;99.90;;;;;;5035978;28;20262;-86
2023/05/17 00:27:28;;;;;;;10.53;3.37;;;8.40;99.90;;;;;;5037941;28;20186;-88
2023/05/17 00:29:54;;;;;;;8.00;3.10;;;8.40;99.90;;;;;;5037244;28;20170;-88
2023/05/17 00:32:20;;;;;;;7.27;3.27;;;8.30;99.90;;;;;;5036824;28;20213;-89
2023/05/17 00:34:45;;;;;;;9.63;2.83;;;8.30;99.90;;;;;;5037497;28;20700;-90
2023/05/17 00:37:11;;;;;;;9.43;3.17;;;8.30;99.90;;;;;;5037522;28;20617;-90
2023/05/17 00:39:37;;;;;;;8.23;2.90;;;8.30;99.90;;;;;;5036672;28;20185;-88
2023/05/17 00:42:03;;;;;;;9.03;2.83;;;8.20;99.90;;;;;;5036170;28;20275;-91
2023/05/17 00:44:29;;;;;;;11.33;3.23;;;8.20;99.90;;;;;;5036994;28;20328;-90
2023/05/17 00:46:56;;;;;;;10.47;3.60;;;8.20;99.90;;;;;;5036707;28;20241;-90
2023/05/17 00:49:22;;;;;;;6.87;2.70;;;8.20;99.90;;;;;;5036863;28;20196;-89
2023/05/17 00:51:47;;;;;;;8.33;2.73;;;8.20;99.90;;;;;;5035420;28;20306;-86
2023/05/17 00:54:14;;;;;;;8.07;2.63;;;8.20;99.90;;;;;;5036540;28;20222;-89
2023/05/17 00:56:40;;;;;;;8.83;2.93;;;8.20;99.90;;;;;;5452376;22;20245;-90
2023/05/17 00:59:06;;;;;;;6.90;2.80;;;8.20;99.90;;;;;;5037134;28;20253;-90
2023/05/17 01:01:34;;;;;;;7.10;2.77;;;8.20;99.90;;;;;;5019228;28;20183;-89
2023/05/17 01:03:59;;;;;;;11.63;2.73;;;8.10;99.90;;;;;;5032766;28;20214;-89
2023/05/17 01:06:25;;;;;;;7.63;3.00;;;8.10;99.90;;;;;;5017247;28;20175;-90
2023/05/17 01:08:51;;;;;;;8.10;2.90;;;8.10;99.90;;;;;;5017145;28;20183;-90
2023/05/17 01:11:45;;;;;;;10.97;3.10;;;8.10;99.90;;;;;;5016548;28;20191;-90
2023/05/17 01:14:37;;;;;;;7.13;2.50;;;8.10;99.90;;;;;;5016252;28;20238;-89
2023/05/17 01:17:14;;;;;;;7.93;3.00;;;8.10;99.90;;;;;;5014134;28;20372;-91
2023/05/17 01:19:57;;;;;;;7.73;2.80;;;8.00;99.90;;;;;;5016900;28;20178;-90
2023/05/17 01:22:42;;;;;;;8.10;2.80;;;8.00;99.90;;;;;;5016888;28;20339;-89
2023/05/17 01:25:23;;;;;;;9.70;3.17;;;8.00;99.90;;;;;;5015649;28;20180;-91
2023/05/17 01:27:50;;;;;;;7.37;2.80;;;8.00;99.90;;;;;;5016366;28;20163;-91
2023/05/17 01:30:19;;;;;;;12.87;3.00;;;8.00;99.90;;;;;;5021680;28;20228;-90
2023/05/17 01:32:45;;;;;;;9.13;3.33;;;8.00;99.90;;;;;;5035356;28;20273;-89
2023/05/17 01:35:11;;;;;;;9.17;3.30;;;8.00;99.90;;;;;;5036550;28;20236;-89
2023/05/17 01:37:38;;;;;;;11.17;3.17;;;8.00;99.90;;;;;;5036234;28;20175;-89
2023/05/17 01:40:07;;;;;;;7.63;3.30;;;8.00;99.90;;;;;;5036172;28;20265;-90
2023/05/17 01:42:37;;;;;;;8.33;3.37;;;8.00;99.90;;;;;;5025225;28;20640;-90
2023/05/17 01:45:18;;;;;;;11.77;3.73;;;7.90;99.90;;;;;;5015392;28;20262;-89
2023/05/17 01:47:55;;;;;;;10.90;3.13;;;7.90;99.90;;;;;;5016458;28;20168;-87
2023/05/17 01:50:25;;;;;;;14.60;3.20;;;8.00;99.90;;;;;;5016112;28;20653;-88
2023/05/17 01:53:04;;;;;;;10.07;3.20;;;7.90;99.90;;;;;;5014404;28;20207;-90
2023/05/17 01:55:36;;;;;;;7.10;2.93;;;7.80;99.90;;;;;;5015215;28;20163;-87
2023/05/17 01:58:05;;;;;;;8.80;3.00;;;7.80;99.90;;;;;;5015732;28;20164;-88
2023/05/17 02:00:31;;;;;;;8.10;3.20;;;7.80;99.90;;;;;;5022909;28;20182;-87
2023/05/17 02:02:57;;;;;;;6.73;2.80;;;7.80;99.90;;;;;;5034668;28;20174;-87
2023/05/17 02:05:22;;;;;;;9.40;3.00;;;7.80;99.90;;;;;;5033882;28;20647;-86
2023/05/17 02:07:49;;;;;;;13.27;3.70;;;7.80;99.90;;;;;;5035340;28;20217;-88
2023/05/17 02:10:15;;;;;;;6.93;2.80;;;7.80;99.90;;;;;;5034551;28;20197;-84
2023/05/17 02:12:41;;;;;;;8.50;3.47;;;7.80;99.90;;;;;;5033822;28;20597;-89
2023/05/17 02:15:10;;;;;;;10.10;3.27;;;7.80;99.90;;;;;;5034334;28;20183;-87
2023/05/17 02:17:38;;;;;;;7.63;3.17;;;7.80;99.90;;;;;;5034317;28;20261;-89
2023/05/17 02:20:05;;;;;;;8.63;3.57;;;7.70;99.90;;;;;;5034169;28;20232;-88
2023/05/17 02:22:31;;;;;;;11.70;3.23;;;7.80;99.90;;;;;;5035212;28;20186;-88
2023/05/17 02:24:57;;;;;;;11.00;3.07;;;7.80;99.90;;;;;;5035233;28;20175;-88
2023/05/17 02:27:22;;;;;;;9.07;3.43;;;7.80;99.90;;;;;;5035010;28;20221;-88
2023/05/17 02:29:48;;;;;;;10.17;3.17;;;7.80;99.90;;;;;;5035258;28;20182;-89
2023/05/17 02:32:14;;;;;;;9.73;3.03;;;7.80;99.90;;;;;;5035191;28;20277;-86
2023/05/17 02:34:40;;;;;;;11.67;3.83;;;7.90;99.90;;;;;;5035143;28;20182;-87
2023/05/17 02:37:05;;;;;;;11.37;3.30;;;7.90;99.90;;;;;;5033867;28;20182;-86
2023/05/17 02:39:37;;;;;;;11.20;3.57;;;7.80;99.90;;;;;;5033891;28;20232;-90
2023/05/17 02:42:03;;;;;;;12.97;3.73;;;7.80;99.90;;;;;;5033627;28;20175;-89
2023/05/17 02:44:29;;;;;;;6.20;2.87;;;7.70;99.90;;;;;;5034885;28;20201;-88
2023/05/17 02:46:55;;;;;;;7.27;3.13;;;7.70;99.90;;;;;;5034021;28;20617;-86
2023/05/17 02:49:20;;;;;;;10.00;3.50;;;7.70;99.90;;;;;;5034899;28;20182;-87
2023/05/17 02:51:46;;;;;;;12.70;3.40;;;7.70;99.90;;;;;;5033565;28;20219;-89
2023/05/17 02:54:12;;;;;;;10.53;3.30;;;7.70;99.90;;;;;;5034810;28;20493;-87
2023/05/17 02:56:37;;;;;;;11.00;3.27;;;7.70;99.90;;;;;;5034444;28;20990;-88
2023/05/17 02:59:04;;;;;;;14.00;3.50;;;7.70;99.90;;;;;;5033889;28;20198;-87
2023/05/17 03:01:30;;;;;;;10.63;3.70;;;7.60;99.90;;;;;;5033737;28;20190;-90
2023/05/17 03:03:56;;;;;;;8.43;3.23;;;7.50;99.90;;;;;;5034855;28;20179;-87
2023/05/17 03:06:21;;;;;;;9.67;3.80;;;7.50;99.90;;;;;;5034851;28;20510;-88
2023/05/17 03:08:47;;;;;;;10.70;3.57;;;7.50;99.90;;;;;;5034596;28;20178;-87
2023/05/17 03:11:13;;;;;;;11.33;3.67;;;7.50;99.90;;;;;;5033992;28;20207;-85
2023/05/17 03:13:38;;;;;;;9.43;3.17;;;7.40;99.90;;;;;;5034654;28;20265;-88
2023/05/17 03:16:04;;;;;;;14.13;3.90;;;7.40;99.90;;;;;;5037630;28;20190;-84
2023/05/17 03:18:30;;;;;;;15.00;4.20;;;7.40;99.90;;;;;;5037522;28;20189;-88
2023/05/17 03:20:56;;;;;;;9.37;3.17;;;7.40;99.90;;;;;;5038579;28;20159;-86
2023/05/17 03:23:22;;;;;;;9.10;3.50;;;7.40;99.90;;;;;;5037218;28;20178;-87
2023/05/17 03:25:47;;;;;;;10.47;3.37;;;7.40;99.90;;;;;;5038398;28;20193;-85
2023/05/17 03:28:13;;;;;;;10.43;3.57;;;7.40;99.90;;;;;;5038316;28;20257;-87
2023/05/17 03:30:39;;;;;;;10.03;3.67;;;7.40;99.90;;;;;;5038232;28;20252;-86
2023/05/17 03:33:05;;;;;;;10.90;3.60;;;7.40;99.90;;;;;;5038233;28;20273;-87
2023/05/17 03:35:30;;;;;;;9.37;3.53;;;7.30;99.90;;;;;;5038317;28;20174;-88
2023/05/17 03:37:56;;;;;;;11.57;3.37;;;7.30;99.90;;;;;;5037090;28;20179;-86
2023/05/17 03:40:28;;;;;;;20.97;4.73;;;7.30;99.90;;;;;;5038042;28;20225;-87
2023/05/17 03:42:53;;;;;;;10.60;3.70;;;7.20;99.90;;;;;;5037781;28;20186;-86
2023/05/17 03:45:19;;;;;;;10.03;3.47;;;7.30;99.90;;;;;;5038123;28;20175;-84
2023/05/17 03:47:45;;;;;;;14.03;4.10;;;7.30;99.90;;;;;;5036841;28;20178;-87
2023/05/17 03:50:11;;;;;;;11.57;3.83;;;7.30;99.90;;;;;;5037651;28;20179;-86
2023/05/17 03:52:36;;;;;;;10.23;3.50;;;7.30;99.90;;;;;;5037456;28;20641;-87
2023/05/17 03:55:02;;;;;;;16.30;3.87;;;7.30;99.90;;;;;;5018100;28;20261;-86
2023/05/17 03:57:28;;;;;;;14.00;3.80;;;7.40;99.90;;;;;;5016486;28;20230;-85
2023/05/17 03:59:54;;;;;;;12.13;3.73;;;7.30;99.90;;;;;;5020098;28;20182;-86
2023/05/17 04:02:20;;;;;;;13.07;3.63;;;7.40;99.90;;;;;;5037948;28;20240;-87
2023/05/17 04:04:49;;;;;;;15.63;3.80;;;7.40;99.90;;;;;;5037828;28;20183;-86
2023/05/17 04:07:16;;;;;;;15.17;4.10;;;7.40;99.90;;;;;;5038162;28;20170;-86
2023/05/17 04:09:42;;;;;;;9.17;3.70;;;7.50;99.90;;;;;;5037684;28;20182;-88
2023/05/17 04:12:09;;;;;;;12.07;3.70;;;7.50;99.90;;;;;;5036042;28;20264;-88
2023/05/17 04:14:38;;;;;;;12.90;4.07;;;7.50;99.90;;;;;;5036557;28;20175;-87
2023/05/17 04:17:04;;;;;;;15.73;4.27;;;7.60;99.90;;;;;;5037724;28;20175;-87
2023/05/17 04:19:35;;;;;;;10.50;3.93;;;7.70;99.90;;;;;;5037734;28;20185;-89
2023/05/17 04:22:00;;;;;;;14.77;4.50;;;7.70;99.90;;;;;;5036711;28;20163;-88
2023/05/17 04:24:27;;;;;;;15.33;4.53;;;7.80;99.90;;;;;;5037520;28;20170;-89
2023/05/17 04:26:53;;;;;;;9.70;3.70;;;7.80;99.90;;;;;;5037308;28;20162;-87
2023/05/17 04:29:21;;;;;;;15.00;4.40;;;8.00;99.90;;;;;;5036510;28;20187;-89
2023/05/17 04:31:48;;;;;;;13.77;4.30;;;8.00;99.90;;;;;;5037409;28;20272;-90
2023/05/17 04:34:14;;;;;;;13.43;4.17;;;8.00;99.90;;;;;;5037415;28;20232;-89
2023/05/17 04:36:40;;;;;;;9.93;4.17;;;8.10;99.90;;;;;;5037482;28;20174;-88
2023/05/17 04:39:06;;;;;;;14.17;4.23;;;8.10;99.90;;;;;;5037177;28;20189;-88
2023/05/17 04:41:32;;;;;;;13.13;3.80;;;8.10;99.90;;;;;;5036863;28;20249;-88
2023/05/17 04:43:58;;;;;;;14.07;4.60;;;8.10;99.90;;;;;;5027466;28;20270;-89
2023/05/17 04:46:24;;;;;;;13.60;3.80;;;8.20;99.90;;;;;;5017161;28;20532;-88
2023/05/17 04:48:50;;;;;;;9.47;3.80;;;8.20;99.90;;;;;;5017500;28;20258;-90
2023/05/17 04:51:23;;;;;;;17.73;4.53;;;8.20;99.90;;;;;;5016203;28;20242;-89
2023/05/17 04:53:48;;;;;;;17.93;4.67;;;8.30;99.90;;;;;;5016184;28;20591;-88
2023/05/17 04:56:15;;;;;;;10.87;3.87;;;8.40;99.90;;;;;;5016901;28;20242;-88
2023/05/17 04:58:40;;;;;;;18.00;4.77;;;8.40;99.90;;;;;;5016921;28;20312;-90
2023/05/17 05:01:09;;;;;;;13.53;4.03;;;8.40;99.90;;;;;;5017599;28;20622;-88
2023/05/17 05:03:35;;;;;;;18.27;3.90;;;8.40;99.90;;;;;;5017258;28;20653;-90
2023/05/17 05:06:02;;;;;;;13.93;3.73;;;8.50;99.90;;;;;;5017577;28;20182;-89
2023/05/17 05:08:29;;;;;;;16.20;3.73;;;8.60;99.90;;;;;;5017209;28;20262;-90
2023/05/17 05:10:55;;;;;;;15.83;3.43;;;8.70;99.90;;;;;;5016735;28;20645;-88
2023/05/17 05:13:21;;;;;;;14.57;3.83;;;8.80;99.90;;;;;;5015316;28;20183;-88
2023/05/17 05:15:47;;;;;;;17.80;3.93;;;8.90;99.90;;;;;;5016829;28;20175;-89
2023/05/17 05:18:13;;;;;;;11.40;3.40;;;9.10;99.90;;;;;;5015789;28;20273;-88
2023/05/17 05:20:40;;;;;;;15.53;3.83;;;9.10;99.90;;;;;;5015245;28;20198;-88
2023/05/17 05:23:05;;;;;;;20.13;4.33;;;9.10;99.90;;;;;;5015348;28;20179;-89
2023/05/17 05:25:36;;;;;;;11.10;3.07;;;9.20;99.90;;;;;;5015126;28;20269;-87
2023/05/17 05:28:02;;;;;;;16.23;3.47;;;9.30;99.90;;;;;;5016584;28;20241;-89
2023/05/17 05:30:32;;;;;;;18.13;3.93;;;9.30;99.90;;;;;;5020668;28;20876;-90
2023/05/17 05:33:04;;;;;;;14.30;3.53;;;9.20;99.90;;;;;;5016407;28;20182;-90
2023/05/17 05:35:29;;;;;;;16.27;4.00;;;9.20;99.90;;;;;;5016753;28;20168;-88
2023/05/17 05:37:56;;;;;;;13.43;3.63;;;9.20;99.90;;;;;;5014873;28;20191;-89
2023/05/17 05:40:22;;;;;;;16.63;3.60;;;9.30;99.90;;;;;;5014632;28;20626;-91
2023/05/17 05:42:48;;;;;;;14.40;3.60;;;9.30;99.90;;;;;;5015775;28;20245;-86
2023/05/17 05:45:14;;;;;;;19.97;4.77;;;9.30;99.90;;;;;;5015020;28;20191;-88
2023/05/17 05:47:39;;;;;;;14.50;3.37;;;9.40;99.90;;;;;;5016255;28;20186;-89
2023/05/17 05:50:12;;;;;;;19.27;3.80;;;9.50;99.90;;;;;;5014712;28;20250;-87
2023/05/17 05:52:38;;;;;;;13.57;3.43;;;9.50;99.90;;;;;;5014671;28;20198;-88
2023/05/17 05:55:04;;;;;;;21.63;3.50;;;9.50;99.90;;;;;;5015943;28;20180;-91
2023/05/17 05:57:30;;;;;;;12.93;3.00;;;9.50;99.90;;;;;;5015043;28;20219;-95
2023/05/17 06:00:04;;;;;;;13.80;3.47;;;9.50;99.90;;;;;;5018675;28;20629;-91
2023/05/17 06:02:30;;;;;;;11.27;2.57;;;9.40;99.90;;;;;;5034917;28;20170;-92
2023/05/17 06:04:56;;;;;;;15.30;3.27;;;9.50;99.90;;;;;;5036228;28;20173;-92
2023/05/17 06:07:22;;;;;;;21.40;3.83;;;9.50;99.90;;;;;;5035090;28;20241;-91
2023/05/17 06:09:49;;;;;;;14.60;3.30;;;9.40;99.90;;;;;;5034651;28;20186;-93
2023/05/17 06:12:16;;;;;;;9.13;2.37;;;9.40;99.90;;;;;;5035056;28;20615;-89
2023/05/17 06:14:42;;;;;;;12.17;3.03;;;9.50;99.90;;;;;;5035918;28;20181;-91
2023/05/17 06:17:07;;;;;;;17.87;2.77;;;9.60;99.90;;;;;;5035954;28;20655;-89
2023/05/17 06:19:33;;;;;;;12.27;2.77;;;9.60;99.90;;;;;;5035508;28;20555;-92
2023/05/17 06:22:08;;;;;;;10.87;2.43;;;9.70;99.90;;;;;;5034271;28;20699;-91
2023/05/17 06:24:34;;;;;;;17.07;3.40;;;9.80;99.90;;;;;;5036270;28;20174;-91
2023/05/17 06:27:00;;;;;;;12.30;2.60;;;9.90;99.90;;;;;;5035511;28;20205;-91
2023/05/17 06:29:26;;;;;;;17.65;2.72;;;10.00;99.90;;;;;;5034358;28;20186;-90
2023/05/17 06:31:52;;;;;;;19.00;3.13;;;9.90;99.90;;;;;;5035244;28;20327;-90
2023/05/17 06:34:18;;;;;;;12.70;2.50;;;9.90;99.90;;;;;;5034429;28;20174;-92
2023/05/17 06:36:43;;;;;;;15.80;2.40;;;10.00;99.90;;;;;;5034562;28;20537;-92
2023/05/17 06:39:09;;;;;;;13.07;2.40;;;10.00;99.90;;;;;;5035492;28;20589;-95
2023/05/17 06:41:35;;;;;;;14.67;2.90;;;10.00;99.90;;;;;;5033950;28;20185;-88
2023/05/17 06:44:01;;;;;;;13.25;2.40;;;10.00;99.90;;;;;;5035570;28;20250;-93
2023/05/17 06:46:27;;;;;;;10.43;2.23;;;10.20;99.90;;;;;;5036007;28;20255;-93
2023/05/17 06:48:52;;;;;;;15.40;2.70;;;10.30;99.90;;;;;;5035585;28;20606;-93
2023/05/17 06:51:19;;;;;;;12.50;2.30;;;10.30;99.90;;;;;;5034516;28;20611;-92
2023/05/17 06:53:45;;;;;;;9.63;2.20;;;10.40;99.90;;;;;;5034766;28;20269;-92
2023/05/17 06:56:10;;;;;;;10.60;2.43;;;10.40;99.90;;;;;;5034037;28;20265;-92
2023/05/17 06:58:36;;;;;;;10.95;2.05;;;10.50;99.90;;;;;;5035579;28;20178;-95
2023/05/17 07:01:02;;;;;;;8.23;2.00;;;10.60;99.90;;;;;;5035195;28;20632;-92
2023/05/17 07:03:28;;;;;;;14.43;2.25;;;10.50;99.90;;;;;;5034585;28;20182;-94
2023/05/17 07:05:53;;;;;;;13.93;2.40;;;10.40;99.90;;;;;;5035253;28;20178;-92
2023/05/17 07:08:19;;;;;;;13.70;2.47;;;10.30;99.90;;;;;;5034995;28;20269;-93
2023/05/17 07:10:51;;;;;;;12.63;2.28;;;10.30;99.90;;;;;;5034831;28;20508;-90
2023/05/17 07:13:17;;;;;;;10.02;2.25;;;10.20;99.90;;;;;;5035125;28;20170;-91
2023/05/17 07:15:42;;;;;;;12.93;2.38;;;10.40;99.90;;;;;;5035430;28;20178;-89
2023/05/17 07:18:08;;;;;;;9.25;2.25;;;10.50;99.90;;;;;;5035472;28;20175;-93
2023/05/17 07:20:34;;;;;;;13.98;2.03;;;10.70;99.90;;;;;;5036415;28;20646;-89
2023/05/17 07:22:59;;;;;;;9.13;2.20;;;10.60;99.90;;;;;;5035340;28;20171;-92
2023/05/17 07:25:26;;;;;;;10.82;1.77;;;10.50;99.90;;;;;;5035568;28;20255;-93
2023/05/17 07:27:51;;;;;;;10.67;2.23;;;10.30;99.90;;;;;;5034854;28;20186;-90
2023/05/17 07:30:17;;;;;;;7.90;1.88;;;10.20;99.90;;;;;;5034121;28;20182;-90
2023/05/17 07:32:45;;;;;;;13.63;1.80;;;10.30;99.90;;;;;;5035192;28;20174;-90
2023/05/17 07:35:10;;;;;;;8.75;2.10;;;10.30;99.90;;;;;;5035516;28;20166;-94
2023/05/17 07:37:36;;;;;;;15.00;2.40;;;10.30;99.90;;;;;;5034188;28;20613;-92
2023/05/17 07:40:04;;;;;;;14.33;2.27;;;10.30;99.90;;;;;;5034313;28;20179;-88
2023/05/17 07:42:29;;;;;;;14.20;2.60;;;10.30;99.90;;;;;;5035623;28;20197;-89
2023/05/17 07:44:55;;;;;;;9.27;2.03;;;10.20;99.90;;;;;;5035175;28;20649;-95
2023/05/17 07:47:21;;;;;;;10.25;2.33;;;10.30;99.90;;;;;;5034926;28;20605;-93
2023/05/17 07:49:46;;;;;;;11.05;2.15;;;10.20;99.90;;;;;;5035358;28;20185;-91
2023/05/17 07:52:12;;;;;;;14.43;2.60;;;10.20;99.90;;;;;;5034600;28;20202;-91
2023/05/17 07:54:38;;;;;;;9.48;2.40;;;10.30;99.90;;;;;;5034712;28;20171;-89
2023/05/17 07:57:04;;;;;;;9.00;1.95;;;10.40;99.90;;;;;;5034224;28;20238;-89
2023/05/17 07:59:30;;;;;;;13.00;2.55;;;10.40;99.90;;;;;;5034181;28;20187;-93
2023/05/17 08:02:03;;;;;;;10.85;2.58;;;10.50;99.90;;;;;;5036989;28;20187;-91
2023/05/17 08:04:29;;;;;;;8.25;2.13;;;10.60;99.90;;;;;;5038036;28;20182;-93
2023/05/17 08:06:55;;;;;;;10.95;2.20;;;10.60;99.90;;;;;;5036207;28;20185;-85
2023/05/17 08:09:21;;;;;;;9.38;2.53;;;10.70;99.90;;;;;;5037705;28;20687;-86
2023/05/17 08:11:52;;;;;;;9.70;2.08;;;10.80;99.90;;;;;;5037410;28;20297;-91
2023/05/17 08:14:21;;;;;;;9.15;2.03;;;10.80;99.70;;;;;;5023009;28;20176;-89
2023/05/17 08:16:47;;;;;;;14.75;2.15;;;10.80;99.90;;;;;;5017934;28;20180;-93
2023/05/17 08:19:14;;;;;;;11.90;2.30;;;10.80;99.90;;;;;;5018670;28;20179;-90
2023/05/17 08:21:41;;;;;;;10.37;2.33;;;10.70;99.90;;;;;;5017941;28;20215;-90
2023/05/17 08:24:07;;;;;;;11.88;2.50;;;10.60;99.70;;;;;;5016644;28;20171;-90
2023/05/17 08:26:33;;;;;;;12.35;2.90;;;10.80;98.80;;;;;;5017416;28;20258;-86
2023/05/17 08:29:00;;;;;;;8.82;2.28;;;10.80;98.10;;;;;;5015727;28;20282;-84
2023/05/17 08:31:26;;;;;;;10.63;2.20;;;11.10;99.90;;;;;;5031637;28;20229;-82
2023/05/17 08:33:51;;;;;;;7.78;2.10;;;11.60;97.70;;;;;;5036454;28;20608;-90
2023/05/17 08:36:17;;;;;;;9.15;2.00;;;12.00;98.80;;;;;;5036152;28;20183;-86
2023/05/17 08:38:43;;;;;;;15.15;2.03;;;12.00;97.00;;;;;;5035936;28;20189;-84
2023/05/17 08:41:09;;;;;;;12.52;2.30;;;12.10;98.20;;;;;;5036010;28;20205;-90
2023/05/17 08:43:35;;;;;;;11.38;1.98;;;11.90;95.60;;;;;;5036986;28;20610;-85
2023/05/17 08:46:02;;;;;;;12.35;2.53;;;11.70;96.20;;;;;;5035794;28;20175;-87
2023/05/17 08:48:32;;;;;;;16.95;2.80;;;11.70;96.50;;;;;;5036859;28;20181;-88
2023/05/17 08:50:58;;;;;;;10.63;2.58;;;11.90;96.80;;;;;;5036598;28;20206;-85
2023/05/17 08:53:25;;;;;;;9.90;2.10;;;12.00;97.40;;;;;;5036459;28;20621;-83
2023/05/17 08:55:57;;;;;;;8.57;2.30;;;12.40;96.70;;;;;;5036133;28;20599;-89
2023/05/17 08:58:28;;;;;;;10.30;2.03;;;12.80;95.00;;;;;;5035808;28;20257;-90
2023/05/17 09:00:56;;;;;;;7.28;1.67;;;13.10;93.70;;;;;;5037028;28;20159;-87
2023/05/17 09:03:22;;;;;;;8.65;2.38;;;12.80;92.00;;;;;;5036663;28;20174;-88
2023/05/17 09:05:55;;;;;;;6.85;1.48;;;12.60;94.00;;;;;;5036411;28;20250;-86
2023/05/17 09:08:21;;;;;;;9.75;1.85;;;12.60;95.80;;;;;;5036565;28;20163;-88
2023/05/17 09:10:48;;;;;;;11.38;1.73;;;12.40;94.30;;;;;;5036302;28;20210;-85
2023/05/17 09:13:16;;;;;;;8.15;1.80;;;12.10;93.60;;;;;;5035245;28;20262;-93
2023/05/17 09:15:43;;;;;;;7.05;1.63;;;11.90;93.10;;;;;;5036704;28;20167;-88
2023/05/17 09:18:13;;;;;;;5.10;1.30;;;11.70;94.70;;;;;;5036537;28;20179;-89
2023/05/17 09:20:40;;;;;;;7.40;1.77;;;11.90;94.30;;;;;;5036391;28;20177;-85
2023/05/17 09:23:09;;;;;;;8.00;2.13;;;12.30;94.00;;;;;;5036642;28;20254;-89
2023/05/17 09:25:35;;;;;;;9.50;2.20;;;12.50;94.40;;;;;;5036017;28;20511;-89
2023/05/17 09:28:08;;;;;;;10.93;2.17;;;12.60;94.20;;;;;;5036688;28;20250;-89
2023/05/17 09:30:37;;;;;;;12.13;1.85;;;12.50;93.30;;;;;;5036005;28;20186;-82
2023/05/17 09:33:10;;;;;;;7.18;2.17;;;12.30;94.80;;;;;;5034667;28;20179;-83
2023/05/17 09:35:37;;;;;;;12.88;2.25;;;12.20;93.90;;;;;;5035986;28;20496;-84
2023/05/17 09:38:12;;;;;;;8.27;2.03;;;12.10;95.90;;;;;;5035891;28;20305;-90
2023/05/17 09:40:39;;;;;;;14.32;2.17;;;12.10;94.70;;;;;;5035781;28;20189;-85
2023/05/17 09:43:05;;;;;;;11.63;2.20;;;12.50;96.30;;;;;;5035912;28;20181;-89
2023/05/17 09:45:31;;;;;;;11.75;2.38;;;12.90;95.10;;;;;;5035808;28;20163;-92
2023/05/17 09:48:09;;;;;;;14.55;2.75;;;13.00;95.60;;;;;;5035659;28;20170;-88
2023/05/17 09:50:35;;;;;;;9.02;2.08;;;13.10;94.10;;;;;;5035376;28;20185;-92
2023/05/17 09:53:03;;;;;;;12.20;2.17;;;12.90;93.70;;;;;;5035082;28;20178;-90
2023/05/17 09:55:29;;;;;;;14.18;2.70;;;12.60;94.40;;;;;;5033594;28;20617;-92
2023/05/17 09:58:02;;;;;;;8.50;2.33;;;12.50;93.50;;;;;;5035322;28;20183;-86
2023/05/17 10:00:30;;;;;;;9.60;2.20;;;12.60;94.60;;;;;;5035547;28;20217;-82
2023/05/17 10:02:58;;;;;;;7.10;2.20;;;12.90;94.10;;;;;;5034189;28;20625;-85
2023/05/17 10:05:24;;;;;;;14.25;2.80;;;13.00;92.10;;;;;;5035201;28;20162;-82
2023/05/17 10:07:53;;;;;;;12.10;2.45;;;13.00;95.20;;;;;;5035451;28;20234;-87
2023/05/17 10:10:19;;;;;;;7.47;2.13;;;13.40;93.20;;;;;;5035102;28;20178;-85
2023/05/17 10:12:46;;;;;;;13.32;2.50;;;13.60;91.60;;;;;;5034612;28;20539;-87
2023/05/17 10:15:12;;;;;;;13.73;2.28;;;13.50;92.00;;;;;;5034048;28;20221;-84
2023/05/17 10:17:40;;;;;;;9.35;2.15;;;13.20;91.50;;;;;;5035190;28;20178;-85
2023/05/17 10:20:07;;;;;;;8.48;2.05;;;13.40;93.30;;;;;;5034626;28;20171;-86
2023/05/17 10:22:36;;;;;;;12.18;2.20;;;13.70;91.90;;;;;;5034988;28;20171;-85
2023/05/17 10:25:02;;;;;;;12.00;2.75;;;13.50;92.10;;;;;;5034386;28;20167;-84
2023/05/17 10:27:29;;;;;;;10.48;2.15;;;13.00;92.70;;;;;;5035087;28;20185;-86
2023/05/17 10:29:56;;;;;;;11.73;1.95;;;12.90;93.00;;;;;;5033758;28;20537;-88
2023/05/17 10:32:25;;;;;;;9.48;1.90;;;13.10;91.80;;;;;;5034771;28;20672;-85
2023/05/17 10:34:53;;;;;;;13.18;2.22;;;13.30;90.30;;;;;;5035728;28;20166;-88
2023/05/17 10:37:20;;;;;;;5.15;1.70;;;13.40;91.10;;;;;;5035986;28;20178;-85
2023/05/17 10:39:47;;;;;;;11.45;2.20;;;13.30;89.40;;;;;;5034762;28;20687;-81
2023/05/17 10:42:16;;;;;;;11.85;2.10;;;13.30;91.50;;;;;;5033407;28;20218;-83
2023/05/17 10:44:42;;;;;;;6.78;1.92;;;13.50;90.90;;;;;;5034908;28;20220;-86
2023/05/17 10:47:09;;;;;;;8.65;2.13;;;13.60;90.80;;;;;;5034917;28;20229;-84
2023/05/17 10:49:38;;;;;;;9.68;2.17;;;13.70;90.10;;;;;;5034594;28;20174;-82
2023/05/17 10:52:12;;;;;;;12.00;2.50;;;14.00;91.70;;;;;;5033569;28;20301;-84
2023/05/17 10:54:41;;;;;;;6.05;1.80;;;13.80;89.00;;;;;;5034833;28;20170;-86
2023/05/17 10:57:07;;;;;;;6.53;1.45;;;13.60;87.50;;;;;;5034127;28;20261;-85
2023/05/17 10:59:34;;;;;;;7.30;1.88;;;13.60;87.80;;;;;;5034906;28;20170;-84
2023/05/17 11:02:02;;;;;;;13.32;2.03;;;13.70;87.50;;;;;;5034341;28;20171;-81
2023/05/17 11:04:54;;;;;;;5.85;1.58;;;13.80;90.50;;;;;;5033093;28;20202;-86
2023/05/17 11:07:23;;;;;;;6.07;1.75;;;14.10;91.90;;;;;;5034285;28;20159;-86
2023/05/17 11:09:50;;;;;;;6.53;1.80;;;13.90;88.60;;;;;;5034504;28;20229;-89
2023/05/17 11:12:36;;;;;;;6.28;2.13;;;14.00;88.70;;;;;;5032311;28;20293;-88
2023/05/17 11:15:09;;;;;;;6.72;1.58;;;14.10;87.70;;;;;;5033536;28;20173;-87
2023/05/17 11:17:49;;;;;;;10.75;2.05;;;14.20;87.80;;;;;;5034469;28;20162;-88
2023/05/17 11:20:15;;;;;;;2.95;1.15;;;14.30;90.60;;;;;;5029746;28;20221;-87
2023/05/17 11:22:49;;;;;;;5.45;1.42;;;14.40;86.40;;;;;;5006552;28;20553;-86
2023/05/17 11:25:16;;;;;;;5.15;1.55;;;14.40;85.80;;;;;;5001513;28;20625;-82
2023/05/17 11:27:45;;;;;;;10.32;2.08;;;14.40;88.50;;;;;;5015005;28;20251;-89
2023/05/17 11:30:25;;;;;;;5.72;1.75;;;14.40;86.60;;;;;;5014501;28;20183;-90
2023/05/17 11:32:56;;;;;;;7.60;1.95;;;14.50;88.80;;;;;;5014436;28;20249;-86
2023/05/17 11:35:25;;;;;;;4.43;1.30;;;14.60;87.70;;;;;;5014710;28;20607;-83
2023/05/17 11:38:18;;;;;;;9.27;1.95;;;14.80;87.40;;;;;;5018157;28;20167;-84
2023/05/17 11:40:45;;;;;;;6.55;1.50;;;14.70;89.10;;;;;;5029902;28;20232;-84
2023/05/17 11:43:16;;;;;;;8.25;1.48;;;14.70;84.60;;;;;;5038147;28;20211;-86
2023/05/17 11:45:43;;;;;;;5.72;1.98;;;14.70;85.70;;;;;;5037800;28;20193;-85
2023/05/17 11:48:11;;;;;;;8.82;2.10;;;15.00;89.30;;;;;;5038030;28;20178;-90
2023/05/17 11:50:38;;;;;;;7.15;1.30;;;15.30;87.80;;;;;;5036733;28;20186;-86
2023/05/17 11:53:06;;;;;;;5.30;1.52;;;14.90;82.90;;;;;;5036780;28;20532;-85
2023/05/17 11:55:44;;;;;;;8.98;1.77;;;15.00;89.20;;;;;;5037060;28;20620;-91
2023/05/17 11:58:12;;;;;;;4.95;1.38;;;15.10;82.90;;;;;;5038166;28;20250;-92
2023/05/17 12:00:40;;;;;;;6.85;1.48;;;15.10;81.90;;;;;;5038077;28;20171;-93
2023/05/17 12:03:17;;;;;;;5.60;1.58;;;15.10;84.90;;;;;;5037486;28;20257;-84
2023/05/17 12:05:43;;;;;;;9.77;1.63;;;15.30;88.70;;;;;;5036341;28;20510;-85
2023/05/17 12:08:09;;;;;;;8.18;1.83;;;15.20;84.00;;;;;;5037662;28;20176;-86
2023/05/17 12:10:36;;;;;;;5.70;1.70;;;15.30;87.60;;;;;;5036797;28;20182;-82
2023/05/17 12:13:02;;;;;;;6.70;1.65;;;15.10;85.90;;;;;;5036283;28;20186;-85
2023/05/17 12:15:30;;;;;;;6.88;1.75;;;15.00;84.60;;;;;;5037380;28;20597;-80
2023/05/17 12:17:56;;;;;;;7.95;1.70;;;14.90;85.10;;;;;;5037466;28;20179;-83
2023/05/17 12:20:22;;;;;;;5.28;1.65;;;15.00;85.40;;;;;;5037095;28;20178;-88
2023/05/17 12:22:55;;;;;;;4.13;1.35;;;15.10;85.50;;;;;;5036934;28;20245;-86
2023/05/17 12:25:24;;;;;;;5.43;1.38;;;15.10;84.40;;;;;;5036824;28;20178;-82
2023/05/17 12:28:11;;;;;;;7.22;1.50;;;15.10;83.90;;;;;;5037214;28;20257;-86
2023/05/17 12:30:37;;;;;;;7.38;1.67;;;15.30;82.80;;;;;;5035745;28;20601;-85
2023/05/17 12:33:03;;;;;;;11.15;1.70;;;15.40;85.20;;;;;;5037057;28;20170;-91
2023/05/17 12:35:30;;;;;;;4.10;1.80;;;15.20;84.10;;;;;;5035975;28;20174;-88
2023/05/17 12:37:56;;;;;;;5.63;1.58;;;15.40;84.50;;;;;;5037252;28;20673;-88
2023/05/17 12:40:22;;;;;;;4.78;1.60;;;15.60;86.00;;;;;;5036626;28;20262;-87
2023/05/17 12:42:47;;;;;;;6.28;1.30;;;15.80;86.60;;;;;;5037136;28;20167;-91
2023/05/17 12:45:13;;;;;;;4.93;1.50;;;15.70;84.60;;;;;;5037727;28;20178;-90
2023/05/17 12:47:39;;;;;;;6.32;1.58;;;15.80;88.30;;;;;;5037035;28;20167;-88